Spring Creek, South Dakota
Current Conditions -  °F | °C
As of 5:52 AM on Thursday 29 Jan 2015 (Local Time) from KVTN Reporting Station
Overcast Overcast  
Wind Chill: -4°   Ceiling: 3000
Heat Index:   Visibility: 10mi
Dew Point: -4°   Wind: 18mph
Humidity: 64%   Direction: 320°NW
Pressure: 30.37"   Gusts: 24mph
Location:  43.1381°N, 100.965°W
Report Text: KVTN 291152Z AUTO 32016G21KT 10SM OVC030 02/M04 A3037 RMK AO2 SLP297 T00171044 10028 20011 51020
Loading
Personal Weather Stations






























Interactive Weather Map New forecast layout! Learn more

10-Day Weather Forecast

Advertisements
Track Severe Weather on mobile